createdAt,value
2023-01-25T00:00:48.902Z,4.50
2023-01-25T00:03:16.181Z,5.13
2023-01-25T00:05:43.626Z,4.60
2023-01-25T00:08:10.794Z,4.63
2023-01-25T00:10:38.031Z,4.70
2023-01-25T00:13:05.204Z,4.22
2023-01-25T00:15:32.371Z,4.90
2023-01-25T00:17:59.580Z,4.15
2023-01-25T00:20:27.343Z,3.75
2023-01-25T00:22:54.603Z,4.70
2023-01-25T00:25:21.701Z,4.60
2023-01-25T00:27:49.045Z,4.97
2023-01-25T00:30:16.599Z,4.40
2023-01-25T00:33:06.604Z,4.68
2023-01-25T00:35:35.264Z,4.28
2023-01-25T00:38:06.756Z,4.20
2023-01-25T00:40:33.934Z,4.68
2023-01-25T00:43:01.284Z,5.28
2023-01-25T00:45:28.505Z,5.43
2023-01-25T00:47:56.769Z,4.28
2023-01-25T00:50:24.003Z,3.58
2023-01-25T00:52:52.077Z,3.85
2023-01-25T00:55:19.267Z,4.13
2023-01-25T00:57:46.434Z,4.63
2023-01-25T01:00:14.191Z,4.70
2023-01-25T01:02:41.468Z,5.32
2023-01-25T01:05:09.396Z,4.32
2023-01-25T01:07:37.038Z,5.38
2023-01-25T01:10:04.831Z,4.10
2023-01-25T01:12:32.069Z,4.40
2023-01-25T01:14:59.347Z,5.72
2023-01-25T01:17:26.488Z,3.53
2023-01-25T01:19:53.741Z,4.00
2023-01-25T01:22:20.862Z,4.32
2023-01-25T01:24:49.593Z,4.10
2023-01-25T01:27:16.892Z,4.00
2023-01-25T01:29:44.228Z,4.22
2023-01-25T01:32:11.510Z,4.97
2023-01-25T01:34:38.830Z,4.57
2023-01-25T01:37:05.975Z,5.00
2023-01-25T01:39:33.336Z,5.07
2023-01-25T01:42:00.698Z,4.15
2023-01-25T01:44:50.703Z,4.85
2023-01-25T01:47:23.216Z,4.40
2023-01-25T01:49:58.045Z,4.15
2023-01-25T01:52:31.384Z,4.45
2023-01-25T01:55:08.580Z,4.57
2023-01-25T01:57:41.933Z,5.03
2023-01-25T02:00:13.723Z,4.32
2023-01-25T02:02:41.558Z,4.90
2023-01-25T02:05:14.722Z,4.78
2023-01-25T02:07:42.079Z,5.05
2023-01-25T02:10:12.606Z,6.05
2023-01-25T02:12:41.061Z,4.15
2023-01-25T02:15:09.484Z,3.88
2023-01-25T02:17:39.436Z,5.20
2023-01-25T02:20:10.457Z,5.03
2023-01-25T02:23:04.332Z,4.50
2023-01-25T02:25:31.566Z,4.63
2023-01-25T02:28:20.402Z,5.50
2023-01-25T02:30:48.427Z,4.00
2023-01-25T02:33:15.831Z,4.28
2023-01-25T02:35:46.565Z,4.50
2023-01-25T02:38:16.597Z,5.28
2023-01-25T02:40:49.282Z,4.53
2023-01-25T02:43:17.249Z,4.38
2023-01-25T02:45:49.694Z,4.47
2023-01-25T02:48:16.897Z,4.53
2023-01-25T02:50:44.059Z,5.82
2023-01-25T02:53:11.305Z,5.53
2023-01-25T02:55:38.465Z,4.65
2023-01-25T02:58:05.712Z,4.82
2023-01-25T03:00:33.017Z,3.67
2023-01-25T03:03:00.205Z,4.57
2023-01-25T03:05:27.537Z,4.90
2023-01-25T03:07:54.913Z,4.25
2023-01-25T03:10:22.141Z,5.50
2023-01-25T03:12:49.334Z,4.75
2023-01-25T03:15:16.761Z,4.80
2023-01-25T03:17:43.935Z,4.72
2023-01-25T03:20:11.976Z,5.72
2023-01-25T03:22:39.424Z,4.90
2023-01-25T03:25:07.587Z,4.28
2023-01-25T03:27:34.963Z,4.82
2023-01-25T03:30:02.307Z,5.13
2023-01-25T03:32:29.732Z,4.88
2023-01-25T03:34:56.991Z,5.18
2023-01-25T03:37:24.319Z,4.30
2023-01-25T03:39:51.454Z,3.85
2023-01-25T03:42:21.612Z,5.30
2023-01-25T03:44:48.942Z,4.35
2023-01-25T03:47:16.504Z,5.57
2023-01-25T03:49:43.624Z,4.63
2023-01-25T03:52:10.954Z,4.65
2023-01-25T03:54:38.181Z,4.97
2023-01-25T03:57:05.360Z,5.55
2023-01-25T03:59:32.712Z,5.93
2023-01-25T04:01:59.923Z,4.40
2023-01-25T04:04:27.195Z,4.60
2023-01-25T04:06:54.462Z,5.43
2023-01-25T04:09:21.714Z,4.78
2023-01-25T04:11:52.192Z,4.95
2023-01-25T04:14:26.248Z,4.35
2023-01-25T04:17:05.563Z,4.10
2023-01-25T04:19:32.815Z,5.95
2023-01-25T04:21:59.975Z,4.75
2023-01-25T04:24:27.276Z,4.32
2023-01-25T04:26:54.521Z,5.80
2023-01-25T04:29:31.670Z,4.90
2023-01-25T04:32:07.437Z,4.85
2023-01-25T04:34:34.763Z,5.07
2023-01-25T04:37:01.958Z,5.28
2023-01-25T04:39:29.107Z,4.97
2023-01-25T04:41:56.230Z,4.10
2023-01-25T04:44:23.467Z,6.05
2023-01-25T04:46:50.712Z,5.45
2023-01-25T04:49:17.959Z,4.40
2023-01-25T04:51:45.115Z,5.07
2023-01-25T04:54:12.463Z,3.97
2023-01-25T04:56:40.249Z,4.78
2023-01-25T04:59:07.401Z,3.95
2023-01-25T05:01:34.880Z,4.45
2023-01-25T05:04:02.260Z,5.00
2023-01-25T05:06:29.479Z,4.70
2023-01-25T05:08:56.682Z,3.50
2023-01-25T05:11:23.906Z,3.40
2023-01-25T05:13:52.236Z,4.65
2023-01-25T05:16:19.473Z,3.70
2023-01-25T05:18:49.135Z,4.30
2023-01-25T05:21:35.549Z,4.65
2023-01-25T05:24:02.763Z,3.55
2023-01-25T05:26:48.375Z,3.92
2023-01-25T05:29:15.517Z,4.07
2023-01-25T05:31:42.736Z,4.07
2023-01-25T05:34:10.396Z,3.60
2023-01-25T05:36:37.775Z,4.15
2023-01-25T05:39:08.895Z,4.43
2023-01-25T05:41:36.192Z,3.92
2023-01-25T05:44:03.502Z,4.05
2023-01-25T05:46:31.256Z,3.97
2023-01-25T05:48:58.584Z,3.95
2023-01-25T05:51:25.770Z,3.47
2023-01-25T05:53:56.326Z,2.90
2023-01-25T05:58:57.928Z,3.35
2023-01-25T06:01:25.843Z,3.00
2023-01-25T06:03:53.280Z,3.72
2023-01-25T06:06:21.100Z,3.55
2023-01-25T06:08:49.019Z,3.40
2023-01-25T06:11:18.942Z,3.20
2023-01-25T06:13:46.934Z,3.47
2023-01-25T06:16:14.360Z,3.75
2023-01-25T06:18:41.839Z,3.20
2023-01-25T06:21:09.605Z,3.13
2023-01-25T06:23:36.899Z,3.83
2023-01-25T06:26:10.447Z,3.90
2023-01-25T06:28:38.485Z,3.30
2023-01-25T06:31:15.071Z,3.42
2023-01-25T06:33:43.290Z,3.47
2023-01-25T06:36:13.685Z,3.40
2023-01-25T06:38:41.860Z,3.50
2023-01-25T06:41:12.106Z,3.25
2023-01-25T06:43:40.110Z,3.00
2023-01-25T06:46:09.568Z,3.60
2023-01-25T06:48:36.764Z,3.22
2023-01-25T06:51:06.956Z,2.70
2023-01-25T06:53:36.212Z,3.53
2023-01-25T06:56:06.667Z,3.25
2023-01-25T06:58:34.425Z,3.50
2023-01-25T07:01:07.202Z,3.20
2023-01-25T07:03:35.105Z,2.80
2023-01-25T07:06:07.483Z,3.40
2023-01-25T07:08:35.262Z,3.17
2023-01-25T07:11:05.547Z,3.08
2023-01-25T07:13:33.950Z,3.03
2023-01-25T07:16:03.696Z,3.40
2023-01-25T07:18:31.829Z,3.20
2023-01-25T07:21:07.086Z,3.30
2023-01-25T07:23:34.845Z,3.85
2023-01-25T07:26:02.155Z,2.92
2023-01-25T07:28:29.588Z,2.85
2023-01-25T07:30:57.272Z,3.83
2023-01-25T07:33:24.433Z,4.13
2023-01-25T07:35:51.574Z,3.25
2023-01-25T07:38:18.668Z,2.55
2023-01-25T07:40:53.407Z,3.33
2023-01-25T07:43:20.845Z,4.07
2023-01-25T07:45:50.951Z,3.42
2023-01-25T07:48:19.504Z,3.25
2023-01-25T07:50:49.784Z,3.30
2023-01-25T07:53:17.442Z,3.90
2023-01-25T07:55:44.493Z,3.67
2023-01-25T07:58:11.973Z,3.28
2023-01-25T08:00:39.193Z,2.03
2023-01-25T08:03:08.103Z,3.65
2023-01-25T08:05:35.185Z,4.07
2023-01-25T08:08:02.492Z,3.67
2023-01-25T08:10:29.595Z,4.28
2023-01-25T08:12:56.620Z,4.75
2023-01-25T08:15:23.696Z,3.72
2023-01-25T08:17:50.751Z,4.07
2023-01-25T08:20:18.168Z,3.97
2023-01-25T08:22:45.449Z,3.67
2023-01-25T08:25:12.524Z,3.22
2023-01-25T08:27:39.651Z,3.45
2023-01-25T08:30:07.222Z,2.97
2023-01-25T08:32:37.307Z,4.15
2023-01-25T08:35:06.038Z,4.80
2023-01-25T08:37:33.060Z,4.50
2023-01-25T08:40:00.582Z,4.38
2023-01-25T08:42:27.711Z,3.30
2023-01-25T08:44:54.940Z,3.50
2023-01-25T08:47:22.060Z,3.85
2023-01-25T08:49:49.283Z,4.10
2023-01-25T08:52:16.467Z,3.58
2023-01-25T08:54:44.574Z,4.40
2023-01-25T08:57:11.712Z,4.00
2023-01-25T08:59:38.762Z,4.68
2023-01-25T09:02:06.100Z,3.83
2023-01-25T09:04:33.140Z,3.80
2023-01-25T09:07:00.233Z,3.13
2023-01-25T09:09:27.346Z,3.75
2023-01-25T09:11:54.452Z,4.43
2023-01-25T09:14:21.674Z,3.53
2023-01-25T09:16:48.841Z,3.90
2023-01-25T09:19:15.951Z,3.20
2023-01-25T09:21:43.020Z,3.30
2023-01-25T09:24:10.246Z,2.90
2023-01-25T09:26:40.881Z,3.55
2023-01-25T09:29:11.779Z,2.70
2023-01-25T09:31:44.185Z,3.08
2023-01-25T09:34:13.919Z,3.55
2023-01-25T09:36:41.180Z,3.05
2023-01-25T09:39:09.561Z,3.55
2023-01-25T09:42:06.752Z,2.83
2023-01-25T09:44:58.479Z,3.75
2023-01-25T09:47:38.606Z,3.75
2023-01-25T09:50:15.373Z,4.35
2023-01-25T09:53:06.433Z,4.00
2023-01-25T09:55:34.066Z,4.05
2023-01-25T09:58:03.035Z,4.35
2023-01-25T10:00:47.989Z,3.83
2023-01-25T10:03:22.790Z,4.45
2023-01-25T10:05:54.716Z,3.60
2023-01-25T10:08:27.643Z,4.38
2023-01-25T10:11:08.367Z,4.57
2023-01-25T10:16:12.139Z,4.97
2023-01-25T10:18:50.587Z,3.88
2023-01-25T10:21:26.149Z,4.25
2023-01-25T10:24:05.132Z,3.85
2023-01-25T10:26:37.266Z,4.57
2023-01-25T10:29:18.870Z,4.65
2023-01-25T10:31:50.664Z,4.50
2023-01-25T10:34:20.751Z,4.30
2023-01-25T10:37:01.382Z,4.38
2023-01-25T10:42:09.153Z,3.53
2023-01-25T10:44:37.726Z,4.68
2023-01-25T10:47:09.934Z,4.10
2023-01-25T10:49:58.456Z,6.03
2023-01-25T10:52:28.026Z,4.13
2023-01-25T10:55:17.897Z,4.70
2023-01-25T10:57:45.853Z,5.35
2023-01-25T11:00:30.648Z,1.88
2023-01-25T11:02:58.269Z,3.60
2023-01-25T11:05:39.681Z,3.80
2023-01-25T11:08:25.798Z,4.15
2023-01-25T11:10:53.977Z,4.65
2023-01-25T11:13:25.386Z,5.30
2023-01-25T11:16:01.847Z,5.22
2023-01-25T11:18:33.899Z,4.28
2023-01-25T11:21:16.564Z,4.20
2023-01-25T11:23:43.653Z,4.30
2023-01-25T11:26:23.315Z,3.35
2023-01-25T11:28:50.539Z,3.97
2023-01-25T11:31:23.598Z,2.47
2023-01-25T11:33:50.947Z,4.10
2023-01-25T11:36:24.552Z,3.88
2023-01-25T11:39:07.491Z,4.10
2023-01-25T11:41:56.674Z,4.25
2023-01-25T11:44:54.426Z,3.92
2023-01-25T11:47:42.616Z,4.00
2023-01-25T11:50:55.856Z,2.92
2023-01-25T11:53:40.522Z,3.10
2023-01-25T11:56:10.512Z,3.15
2023-01-25T11:58:47.143Z,3.92
2023-01-25T12:01:38.285Z,3.85
2023-01-25T12:04:38.865Z,3.28
2023-01-25T12:07:41.122Z,3.75
2023-01-25T12:10:52.526Z,3.83
2023-01-25T12:13:39.549Z,3.30
2023-01-25T12:16:21.802Z,3.28
2023-01-25T12:19:07.962Z,2.40
2023-01-25T12:22:19.072Z,3.30
2023-01-25T12:24:58.954Z,2.95
2023-01-25T12:27:47.943Z,3.60
2023-01-25T12:30:47.088Z,3.33
2023-01-25T12:33:34.554Z,3.00
2023-01-25T12:36:12.728Z,2.83
2023-01-25T12:39:01.241Z,2.80
2023-01-25T12:41:34.841Z,3.90
2023-01-25T12:44:01.866Z,2.70
2023-01-25T12:46:40.635Z,3.60
2023-01-25T12:49:18.563Z,4.13
2023-01-25T12:51:47.447Z,2.67
2023-01-25T12:54:38.876Z,3.35
2023-01-25T12:57:36.356Z,3.50
2023-01-25T13:00:28.699Z,3.97
2023-01-25T13:03:12.667Z,3.70
2023-01-25T13:05:43.823Z,3.38
2023-01-25T13:08:39.731Z,3.72
2023-01-25T13:11:33.455Z,3.53
2023-01-25T13:14:26.285Z,3.38
2023-01-25T13:17:09.482Z,3.85
2023-01-25T13:19:37.033Z,3.92
2023-01-25T13:22:04.872Z,3.67
2023-01-25T13:24:34.281Z,3.92
2023-01-25T13:27:04.582Z,4.00
2023-01-25T13:29:35.639Z,3.30
2023-01-25T13:32:07.730Z,3.00
2023-01-25T13:34:40.532Z,3.10
2023-01-25T13:37:30.175Z,3.00
2023-01-25T13:40:07.733Z,3.33
2023-01-25T13:42:38.755Z,2.70
2023-01-25T13:45:18.747Z,2.67
2023-01-25T13:48:19.966Z,4.57
2023-01-25T13:50:53.843Z,4.32
2023-01-25T13:53:23.748Z,3.72
2023-01-25T13:55:58.344Z,3.42
2023-01-25T13:58:34.331Z,4.32
2023-01-25T14:01:17.409Z,3.00
2023-01-25T14:04:02.720Z,3.03
2023-01-25T14:06:40.647Z,3.28
2023-01-25T14:09:20.781Z,4.28
2023-01-25T14:12:02.444Z,3.33
2023-01-25T14:14:33.195Z,4.80
2023-01-25T14:17:19.156Z,4.10
2023-01-25T14:19:56.117Z,4.22
2023-01-25T14:22:23.321Z,3.90
2023-01-25T14:25:17.541Z,3.85
2023-01-25T14:27:51.677Z,3.78
2023-01-25T14:30:20.963Z,2.83
2023-01-25T14:32:49.685Z,4.70
2023-01-25T14:35:43.544Z,4.40
2023-01-25T14:38:21.496Z,3.17
2023-01-25T14:40:50.824Z,3.45
2023-01-25T14:43:18.914Z,3.25
2023-01-25T14:45:45.992Z,3.83
2023-01-25T14:48:38.899Z,3.50
2023-01-25T14:51:17.803Z,3.92
2023-01-25T14:53:49.693Z,3.00
2023-01-25T14:56:37.965Z,3.60
2023-01-25T14:59:06.525Z,4.55
2023-01-25T15:01:41.372Z,4.80
2023-01-25T15:04:13.534Z,3.85
2023-01-25T15:06:56.106Z,4.88
2023-01-25T15:09:38.958Z,5.30
2023-01-25T15:12:28.226Z,5.75
2023-01-25T15:14:57.046Z,5.05
2023-01-25T15:17:46.985Z,3.53
2023-01-25T15:20:38.159Z,4.70
2023-01-25T15:23:24.765Z,5.50
2023-01-25T15:25:53.318Z,5.72
2023-01-25T15:28:20.904Z,5.88
2023-01-25T15:30:48.498Z,5.47
2023-01-25T15:33:27.329Z,4.95
2023-01-25T15:35:54.834Z,5.70
2023-01-25T15:38:22.725Z,5.78
2023-01-25T15:40:49.822Z,5.80
2023-01-25T15:43:19.206Z,6.40
2023-01-25T15:45:52.899Z,7.10
2023-01-25T15:48:40.743Z,4.22
2023-01-25T15:51:08.064Z,6.15
2023-01-25T15:53:35.574Z,6.10
2023-01-25T15:56:06.244Z,6.03
2023-01-25T16:01:05.206Z,5.57
2023-01-25T16:03:32.767Z,6.40
2023-01-25T16:06:04.235Z,6.40
2023-01-25T16:08:31.858Z,4.95
2023-01-25T16:10:59.109Z,5.40
2023-01-25T16:13:26.167Z,6.10
2023-01-25T16:15:56.066Z,3.35
2023-01-25T16:18:23.222Z,6.97
2023-01-25T16:20:50.674Z,6.88
2023-01-25T16:23:17.737Z,5.57
2023-01-25T16:25:47.841Z,6.55
2023-01-25T16:28:16.090Z,5.38
2023-01-25T16:30:45.288Z,6.90
2023-01-25T16:33:12.586Z,7.50
2023-01-25T16:35:39.693Z,4.55
2023-01-25T16:38:06.697Z,5.40
2023-01-25T16:40:39.028Z,6.72
2023-01-25T16:43:06.146Z,7.80
2023-01-25T16:45:33.233Z,6.60
2023-01-25T16:48:02.056Z,8.43
2023-01-25T16:50:29.518Z,5.50
2023-01-25T16:52:58.641Z,7.95
2023-01-25T16:55:25.715Z,4.50
2023-01-25T16:57:52.870Z,7.53
2023-01-25T17:00:20.375Z,6.22
2023-01-25T17:02:58.717Z,5.97
2023-01-25T17:05:29.397Z,6.18
2023-01-25T17:07:56.455Z,5.05
2023-01-25T17:10:24.195Z,8.93
2023-01-25T17:12:52.167Z,8.13
2023-01-25T17:15:20.716Z,6.60
2023-01-25T17:17:47.813Z,7.40
2023-01-25T17:20:15.276Z,8.20
2023-01-25T17:22:44.463Z,6.65
2023-01-25T17:25:11.555Z,5.47
2023-01-25T17:27:38.750Z,7.45
2023-01-25T17:30:06.409Z,6.72
2023-01-25T17:32:33.587Z,7.30
2023-01-25T17:35:01.625Z,6.55
2023-01-25T17:37:28.715Z,7.80
2023-01-25T17:39:55.815Z,6.80
2023-01-25T17:42:22.932Z,8.60
2023-01-25T17:44:50.043Z,7.15
2023-01-25T17:47:17.061Z,10.70
2023-01-25T17:49:44.325Z,6.75
2023-01-25T17:52:11.590Z,9.82
2023-01-25T17:54:38.705Z,7.82
2023-01-25T17:57:05.821Z,5.70
2023-01-25T17:59:32.906Z,6.38
2023-01-25T18:01:59.963Z,7.28
2023-01-25T18:04:27.020Z,9.48
2023-01-25T18:06:54.265Z,11.70
2023-01-25T18:09:21.327Z,7.03
2023-01-25T18:11:48.457Z,11.57
2023-01-25T18:14:17.054Z,9.80
2023-01-25T18:16:44.913Z,5.88
2023-01-25T18:19:12.335Z,8.73
2023-01-25T18:21:42.064Z,8.07
2023-01-25T18:24:15.093Z,9.30
2023-01-25T18:26:42.933Z,8.00
2023-01-25T18:29:09.956Z,7.65
2023-01-25T18:31:37.415Z,7.82
2023-01-25T18:34:05.023Z,7.82
2023-01-25T18:36:32.234Z,9.10
2023-01-25T18:39:00.528Z,8.13
2023-01-25T18:41:27.673Z,8.32
2023-01-25T18:43:56.876Z,8.93
2023-01-25T18:46:24.082Z,8.02
2023-01-25T18:48:51.418Z,10.75
2023-01-25T18:51:18.777Z,8.52
2023-01-25T18:53:47.851Z,7.80
2023-01-25T18:56:17.683Z,9.35
2023-01-25T18:58:45.833Z,8.70
2023-01-25T19:01:21.426Z,7.63
2023-01-25T19:03:49.743Z,9.63
2023-01-25T19:06:18.283Z,7.47
2023-01-25T19:08:49.844Z,7.00
2023-01-25T19:11:22.537Z,7.70
2023-01-25T19:13:50.605Z,10.45
2023-01-25T19:16:20.337Z,8.57
2023-01-25T19:18:50.224Z,7.10
2023-01-25T19:21:23.013Z,10.02
2023-01-25T19:23:50.894Z,7.70
2023-01-25T19:26:20.467Z,9.02
2023-01-25T19:28:48.333Z,9.23
2023-01-25T19:31:18.600Z,11.63
2023-01-25T19:33:46.523Z,9.30
2023-01-25T19:36:19.350Z,9.15
2023-01-25T19:38:48.246Z,8.05
2023-01-25T19:41:18.259Z,7.25
2023-01-25T19:43:45.911Z,8.32
2023-01-25T19:46:13.016Z,8.68
2023-01-25T19:48:41.344Z,8.07
2023-01-25T19:51:28.738Z,6.88
2023-01-25T19:54:13.934Z,8.85
2023-01-25T19:56:41.784Z,6.40
2023-01-25T19:59:12.666Z,7.60
2023-01-25T20:01:44.281Z,6.72
2023-01-25T20:04:17.709Z,6.90
2023-01-25T20:06:44.863Z,8.60
2023-01-25T20:09:14.090Z,7.50
2023-01-25T20:11:41.721Z,7.55
2023-01-25T20:14:10.947Z,7.28
2023-01-25T20:16:38.102Z,7.72
2023-01-25T20:19:05.559Z,12.57
2023-01-25T20:21:33.867Z,7.07
2023-01-25T20:24:04.984Z,5.57
2023-01-25T20:26:36.414Z,7.47
2023-01-25T20:29:03.708Z,6.63
2023-01-25T20:31:41.347Z,6.28
2023-01-25T20:34:12.560Z,7.25
2023-01-25T20:36:40.741Z,8.45
2023-01-25T20:39:09.247Z,7.75
2023-01-25T20:41:36.319Z,9.10
2023-01-25T20:44:11.514Z,7.05
2023-01-25T20:46:40.476Z,7.88
2023-01-25T20:49:15.929Z,9.82
2023-01-25T20:51:43.462Z,7.53
2023-01-25T20:54:11.268Z,8.82
2023-01-25T20:56:39.178Z,10.88
2023-01-25T20:59:06.432Z,8.57
2023-01-25T21:01:37.438Z,9.75
2023-01-25T21:04:06.393Z,7.40
2023-01-25T21:06:35.481Z,7.97
2023-01-25T21:09:04.179Z,8.43
2023-01-25T21:11:31.945Z,8.68
2023-01-25T21:13:59.830Z,8.93
2023-01-25T21:16:27.604Z,10.30
2023-01-25T21:19:00.493Z,10.27
2023-01-25T21:21:29.829Z,7.70
2023-01-25T21:24:00.283Z,12.60
2023-01-25T21:28:56.253Z,10.48
2023-01-25T21:31:28.557Z,9.82
2023-01-25T21:33:56.383Z,8.52
2023-01-25T21:36:23.904Z,9.60
2023-01-25T21:38:52.743Z,9.95
2023-01-25T21:41:29.368Z,10.20
2023-01-25T21:44:17.650Z,11.52
2023-01-25T21:47:06.083Z,11.07
2023-01-25T21:49:51.147Z,11.40
2023-01-25T21:52:18.404Z,10.43
2023-01-25T21:54:45.672Z,8.65
2023-01-25T21:57:12.872Z,9.77
2023-01-25T21:59:41.133Z,12.48
2023-01-25T22:02:13.328Z,12.65
2023-01-25T22:04:40.920Z,10.55
2023-01-25T22:07:09.636Z,11.27
2023-01-25T22:09:36.886Z,9.55
2023-01-25T22:12:04.315Z,13.02
2023-01-25T22:14:31.609Z,12.73
2023-01-25T22:16:58.928Z,16.30
2023-01-25T22:19:26.380Z,12.63
2023-01-25T22:21:53.559Z,13.50
2023-01-25T22:24:20.967Z,11.23
2023-01-25T22:26:54.216Z,11.13
2023-01-25T22:29:21.666Z,8.73
2023-01-25T22:31:48.996Z,10.07
2023-01-25T22:34:16.176Z,11.30
2023-01-25T22:36:43.385Z,10.10
2023-01-25T22:39:14.655Z,11.98
2023-01-25T22:41:42.532Z,10.75
2023-01-25T22:44:10.269Z,14.52
2023-01-25T22:46:37.858Z,12.20
2023-01-25T22:49:05.229Z,14.50
2023-01-25T22:51:32.889Z,12.80
2023-01-25T22:54:00.705Z,14.60
2023-01-25T22:56:31.931Z,12.40
2023-01-25T22:59:00.735Z,13.10
2023-01-25T23:01:35.715Z,12.77
2023-01-25T23:04:03.145Z,15.70
2023-01-25T23:06:33.294Z,11.93
2023-01-25T23:09:04.501Z,14.18
2023-01-25T23:11:37.481Z,10.88
2023-01-25T23:14:25.274Z,10.60
2023-01-25T23:16:52.665Z,12.65
2023-01-25T23:19:19.898Z,11.05
2023-01-25T23:21:47.035Z,12.00
2023-01-25T23:24:14.225Z,12.68
2023-01-25T23:26:46.668Z,11.85
2023-01-25T23:29:14.708Z,15.68
2023-01-25T23:31:42.138Z,13.35
2023-01-25T23:34:11.364Z,10.35
2023-01-25T23:36:44.500Z,12.98
2023-01-25T23:39:13.441Z,13.30
2023-01-25T23:41:40.743Z,11.80
2023-01-25T23:44:09.295Z,14.05
2023-01-25T23:46:37.218Z,11.85
2023-01-25T23:49:04.437Z,11.88
2023-01-25T23:51:31.657Z,10.88
2023-01-25T23:53:58.947Z,12.18
2023-01-25T23:56:26.231Z,11.57
2023-01-25T23:58:53.689Z,11.93
